sensor_id;sensor_type;location;lat;lon;timestamp;pressure;altitude;pressure_sealevel;temperature;humidity
5574;BME280;2563;52.242;7.956;2023-04-29T00:00:33;99246.78;;;11.15;100.00
5574;BME280;2563;52.242;7.956;2023-04-29T00:02:58;99259.59;;;11.16;100.00
5574;BME280;2563;52.242;7.956;2023-04-29T00:05:25;99245.13;;;11.14;100.00
5574;BME280;2563;52.242;7.956;2023-04-29T00:07:51;99244.38;;;11.12;100.00
5574;BME280;2563;52.242;7.956;2023-04-29T00:10:16;99252.94;;;11.12;100.00
5574;BME280;2563;52.242;7.956;2023-04-29T00:12:42;99250.41;;;11.11;100.00
5574;BME280;2563;52.242;7.956;2023-04-29T00:15:07;99259.06;;;11.10;100.00
5574;BME280;2563;52.242;7.956;2023-04-29T00:17:33;99261.63;;;11.10;100.00
5574;BME280;2563;52.242;7.956;2023-04-29T00:19:59;99258.66;;;11.00;100.00
5574;BME280;2563;52.242;7.956;2023-04-29T00:22:24;99263.09;;;10.96;100.00
5574;BME280;2563;52.242;7.956;2023-04-29T00:24:50;99264.38;;;10.88;100.00
5574;BME280;2563;52.242;7.956;2023-04-29T00:27:16;99271.47;;;10.82;100.00
5574;BME280;2563;52.242;7.956;2023-04-29T00:29:42;99269.22;;;10.75;100.00
5574;BME280;2563;52.242;7.956;2023-04-29T00:32:08;99273.69;;;10.71;100.00
5574;BME280;2563;52.242;7.956;2023-04-29T00:34:33;99284.00;;;10.71;100.00
5574;BME280;2563;52.242;7.956;2023-04-29T00:36:58;99290.19;;;10.67;100.00
5574;BME280;2563;52.242;7.956;2023-04-29T00:39:24;99283.44;;;10.64;100.00
5574;BME280;2563;52.242;7.956;2023-04-29T00:41:50;99294.00;;;10.58;100.00
5574;BME280;2563;52.242;7.956;2023-04-29T00:44:15;99296.78;;;10.54;100.00
5574;BME280;2563;52.242;7.956;2023-04-29T00:46:42;99306.16;;;10.55;100.00
5574;BME280;2563;52.242;7.956;2023-04-29T00:49:07;99314.78;;;10.54;100.00
5574;BME280;2563;52.242;7.956;2023-04-29T00:51:35;99319.16;;;10.52;100.00
5574;BME280;2563;52.242;7.956;2023-04-29T00:54:05;99320.97;;;10.50;100.00
5574;BME280;2563;52.242;7.956;2023-04-29T00:56:34;99335.63;;;10.48;100.00
5574;BME280;2563;52.242;7.956;2023-04-29T00:59:01;99331.50;;;10.43;100.00
5574;BME280;2563;52.242;7.956;2023-04-29T01:01:28;99353.78;;;10.45;100.00
5574;BME280;2563;52.242;7.956;2023-04-29T01:03:54;99349.59;;;10.42;100.00
5574;BME280;2563;52.242;7.956;2023-04-29T01:14:30;99385.66;;;10.40;100.00
5574;BME280;2563;52.242;7.956;2023-04-29T01:16:59;99387.41;;;10.40;100.00
5574;BME280;2563;52.242;7.956;2023-04-29T01:19:44;99384.91;;;10.38;100.00
5574;BME280;2563;52.242;7.956;2023-04-29T01:22:11;99399.50;;;10.38;100.00
5574;BME280;2563;52.242;7.956;2023-04-29T01:24:39;99403.03;;;10.35;100.00
5574;BME280;2563;52.242;7.956;2023-04-29T01:27:13;99421.94;;;10.34;100.00
5574;BME280;2563;52.242;7.956;2023-04-29T01:32:17;99414.34;;;10.31;100.00
5574;BME280;2563;52.242;7.956;2023-04-29T01:34:59;99426.31;;;10.32;100.00
5574;BME280;2563;52.242;7.956;2023-04-29T01:37:40;99429.78;;;10.31;100.00
5574;BME280;2563;52.242;7.956;2023-04-29T01:40:15;99435.84;;;10.30;100.00
5574;BME280;2563;52.242;7.956;2023-04-29T01:42:46;99436.81;;;10.26;100.00
5574;BME280;2563;52.242;7.956;2023-04-29T01:45:14;99453.06;;;10.28;100.00
5574;BME280;2563;52.242;7.956;2023-04-29T01:47:46;99456.47;;;10.29;100.00
5574;BME280;2563;52.242;7.956;2023-04-29T01:50:13;99464.13;;;10.30;100.00
5574;BME280;2563;52.242;7.956;2023-04-29T01:52:38;99469.25;;;10.30;100.00
5574;BME280;2563;52.242;7.956;2023-04-29T01:55:06;99475.28;;;10.29;100.00
5574;BME280;2563;52.242;7.956;2023-04-29T01:57:32;99483.09;;;10.26;100.00
5574;BME280;2563;52.242;7.956;2023-04-29T01:59:58;99496.00;;;10.25;100.00
5574;BME280;2563;52.242;7.956;2023-04-29T02:02:24;99502.00;;;10.25;100.00
5574;BME280;2563;52.242;7.956;2023-04-29T02:04:49;99502.91;;;10.24;100.00
5574;BME280;2563;52.242;7.956;2023-04-29T02:07:16;99517.53;;;10.22;100.00
5574;BME280;2563;52.242;7.956;2023-04-29T02:09:41;99514.22;;;10.20;100.00
5574;BME280;2563;52.242;7.956;2023-04-29T02:12:07;99521.03;;;10.21;100.00
5574;BME280;2563;52.242;7.956;2023-04-29T02:14:32;99529.53;;;10.23;100.00
5574;BME280;2563;52.242;7.956;2023-04-29T02:16:58;99535.63;;;10.20;100.00
5574;BME280;2563;52.242;7.956;2023-04-29T02:19:24;99548.41;;;10.22;100.00
5574;BME280;2563;52.242;7.956;2023-04-29T02:21:49;99550.09;;;10.23;100.00
5574;BME280;2563;52.242;7.956;2023-04-29T02:24:15;99551.88;;;10.21;100.00
5574;BME280;2563;52.242;7.956;2023-04-29T02:26:40;99561.44;;;10.17;100.00
5574;BME280;2563;52.242;7.956;2023-04-29T02:29:06;99577.81;;;10.15;100.00
5574;BME280;2563;52.242;7.956;2023-04-29T02:31:31;99583.81;;;10.15;100.00
5574;BME280;2563;52.242;7.956;2023-04-29T02:33:57;99593.25;;;10.15;100.00
5574;BME280;2563;52.242;7.956;2023-04-29T02:36:22;99592.50;;;10.13;100.00
5574;BME280;2563;52.242;7.956;2023-04-29T02:38:48;99606.06;;;10.16;100.00
5574;BME280;2563;52.242;7.956;2023-04-29T02:41:16;99600.97;;;10.15;100.00
5574;BME280;2563;52.242;7.956;2023-04-29T02:43:42;99608.81;;;10.12;100.00
5574;BME280;2563;52.242;7.956;2023-04-29T02:46:08;99609.81;;;10.08;100.00
5574;BME280;2563;52.242;7.956;2023-04-29T02:48:34;99608.31;;;10.02;100.00
5574;BME280;2563;52.242;7.956;2023-04-29T02:50:59;99624.69;;;9.99;100.00
5574;BME280;2563;52.242;7.956;2023-04-29T02:53:25;99633.31;;;9.98;100.00
5574;BME280;2563;52.242;7.956;2023-04-29T02:55:50;99636.75;;;9.97;100.00
5574;BME280;2563;52.242;7.956;2023-04-29T02:58:16;99647.00;;;9.99;100.00
5574;BME280;2563;52.242;7.956;2023-04-29T03:00:41;99638.53;;;9.95;100.00
5574;BME280;2563;52.242;7.956;2023-04-29T03:03:06;99653.34;;;9.89;100.00
5574;BME280;2563;52.242;7.956;2023-04-29T03:05:32;99662.91;;;9.85;100.00
5574;BME280;2563;52.242;7.956;2023-04-29T03:07:58;99666.47;;;9.81;100.00
5574;BME280;2563;52.242;7.956;2023-04-29T03:10:24;99680.22;;;9.80;100.00
5574;BME280;2563;52.242;7.956;2023-04-29T03:12:49;99685.47;;;9.77;100.00
5574;BME280;2563;52.242;7.956;2023-04-29T03:15:15;99694.09;;;9.74;100.00
5574;BME280;2563;52.242;7.956;2023-04-29T03:17:40;99707.91;;;9.72;100.00
5574;BME280;2563;52.242;7.956;2023-04-29T03:20:06;99716.41;;;9.74;100.00
5574;BME280;2563;52.242;7.956;2023-04-29T03:22:32;99724.19;;;9.72;100.00
5574;BME280;2563;52.242;7.956;2023-04-29T03:24:57;99739.69;;;9.69;100.00
5574;BME280;2563;52.242;7.956;2023-04-29T03:27:23;99746.50;;;9.70;100.00
5574;BME280;2563;52.242;7.956;2023-04-29T03:29:48;99759.41;;;9.69;100.00
5574;BME280;2563;52.242;7.956;2023-04-29T03:32:14;99762.75;;;9.71;100.00
5574;BME280;2563;52.242;7.956;2023-04-29T03:34:39;99774.81;;;9.69;100.00
5574;BME280;2563;52.242;7.956;2023-04-29T03:37:04;99780.94;;;9.65;100.00
5574;BME280;2563;52.242;7.956;2023-04-29T03:39:30;99785.38;;;9.59;100.00
5574;BME280;2563;52.242;7.956;2023-04-29T03:41:57;99786.28;;;9.58;100.00
5574;BME280;2563;52.242;7.956;2023-04-29T03:44:23;99792.31;;;9.57;100.00
5574;BME280;2563;52.242;7.956;2023-04-29T03:46:49;99810.34;;;9.56;100.00
5574;BME280;2563;52.242;7.956;2023-04-29T03:49:14;99821.66;;;9.50;100.00
5574;BME280;2563;52.242;7.956;2023-04-29T03:51:40;99818.31;;;9.48;100.00
5574;BME280;2563;52.242;7.956;2023-04-29T03:54:06;99832.84;;;9.48;100.00
5574;BME280;2563;52.242;7.956;2023-04-29T03:56:31;99844.06;;;9.45;100.00
5574;BME280;2563;52.242;7.956;2023-04-29T03:58:57;99860.38;;;9.44;100.00
5574;BME280;2563;52.242;7.956;2023-04-29T04:01:22;99867.19;;;9.45;100.00
5574;BME280;2563;52.242;7.956;2023-04-29T04:03:48;99885.16;;;9.45;100.00
5574;BME280;2563;52.242;7.956;2023-04-29T04:06:13;99894.66;;;9.43;100.00
5574;BME280;2563;52.242;7.956;2023-04-29T04:08:39;99913.41;;;9.45;100.00
5574;BME280;2563;52.242;7.956;2023-04-29T04:11:05;99940.75;;;9.48;100.00
5574;BME280;2563;52.242;7.956;2023-04-29T04:13:31;99945.81;;;9.51;100.00
5574;BME280;2563;52.242;7.956;2023-04-29T04:15:57;99962.16;;;9.48;100.00
5574;BME280;2563;52.242;7.956;2023-04-29T04:18:22;99980.22;;;9.45;100.00
5574;BME280;2563;52.242;7.956;2023-04-29T04:20:48;99978.56;;;9.43;100.00
5574;BME280;2563;52.242;7.956;2023-04-29T04:23:13;99991.47;;;9.41;100.00
5574;BME280;2563;52.242;7.956;2023-04-29T04:25:46;99991.47;;;9.41;100.00
5574;BME280;2563;52.242;7.956;2023-04-29T04:28:12;100012.97;;;9.39;100.00
5574;BME280;2563;52.242;7.956;2023-04-29T04:30:37;100027.44;;;9.41;100.00
5574;BME280;2563;52.242;7.956;2023-04-29T04:33:03;100044.63;;;9.39;100.00
5574;BME280;2563;52.242;7.956;2023-04-29T04:35:28;100054.06;;;9.39;100.00
5574;BME280;2563;52.242;7.956;2023-04-29T04:37:54;100066.16;;;9.33;100.00
5574;BME280;2563;52.242;7.956;2023-04-29T04:40:19;100078.88;;;9.38;100.00
5574;BME280;2563;52.242;7.956;2023-04-29T04:42:45;100083.09;;;9.41;100.00
5574;BME280;2563;52.242;7.956;2023-04-29T04:45:11;100099.41;;;9.38;100.00
5574;BME280;2563;52.242;7.956;2023-04-29T04:47:36;100128.56;;;9.37;100.00
5574;BME280;2563;52.242;7.956;2023-04-29T04:50:05;100137.09;;;9.39;100.00
5574;BME280;2563;52.242;7.956;2023-04-29T04:52:31;100167.91;;;9.39;100.00
5574;BME280;2563;52.242;7.956;2023-04-29T04:54:57;100190.94;;;9.42;100.00
5574;BME280;2563;52.242;7.956;2023-04-29T04:57:22;100205.53;;;9.40;100.00
5574;BME280;2563;52.242;7.956;2023-04-29T04:59:48;100214.97;;;9.40;100.00
5574;BME280;2563;52.242;7.956;2023-04-29T05:02:13;100226.09;;;9.40;100.00
5574;BME280;2563;52.242;7.956;2023-04-29T05:04:39;100244.13;;;9.39;100.00
5574;BME280;2563;52.242;7.956;2023-04-29T05:07:04;100252.63;;;9.41;100.00
5574;BME280;2563;52.242;7.956;2023-04-29T05:09:30;100264.53;;;9.43;100.00
5574;BME280;2563;52.242;7.956;2023-04-29T05:11:56;100270.69;;;9.36;100.00
5574;BME280;2563;52.242;7.956;2023-04-29T05:14:23;100284.34;;;9.38;100.00
5574;BME280;2563;52.242;7.956;2023-04-29T05:16:49;100292.94;;;9.37;100.00
5574;BME280;2563;52.242;7.956;2023-04-29T05:19:15;100304.84;;;9.41;100.00
5574;BME280;2563;52.242;7.956;2023-04-29T05:21:41;100320.28;;;9.41;100.00
5574;BME280;2563;52.242;7.956;2023-04-29T05:24:06;100317.75;;;9.38;100.00
5574;BME280;2563;52.242;7.956;2023-04-29T05:26:32;100330.50;;;9.43;100.00
5574;BME280;2563;52.242;7.956;2023-04-29T05:28:58;100324.50;;;9.44;100.00
5574;BME280;2563;52.242;7.956;2023-04-29T05:31:24;100314.25;;;9.42;100.00
5574;BME280;2563;52.242;7.956;2023-04-29T05:33:50;100320.16;;;9.46;100.00
5574;BME280;2563;52.242;7.956;2023-04-29T05:36:15;100328.72;;;9.46;100.00
5574;BME280;2563;52.242;7.956;2023-04-29T05:38:41;100319.25;;;9.48;100.00
5574;BME280;2563;52.242;7.956;2023-04-29T05:41:09;100321.72;;;9.51;100.00
5574;BME280;2563;52.242;7.956;2023-04-29T05:43:34;100334.41;;;9.57;100.00
5574;BME280;2563;52.242;7.956;2023-04-29T05:46:00;100353.22;;;9.59;100.00
5574;BME280;2563;52.242;7.956;2023-04-29T05:48:26;100360.91;;;9.61;100.00
5574;BME280;2563;52.242;7.956;2023-04-29T05:50:52;100355.75;;;9.63;100.00
5574;BME280;2563;52.242;7.956;2023-04-29T05:53:18;100345.59;;;9.56;100.00
5574;BME280;2563;52.242;7.956;2023-04-29T05:55:45;100343.03;;;9.56;100.00
5574;BME280;2563;52.242;7.956;2023-04-29T05:58:11;100326.72;;;9.57;100.00
5574;BME280;2563;52.242;7.956;2023-04-29T06:00:36;100310.47;;;9.57;100.00
5574;BME280;2563;52.242;7.956;2023-04-29T06:03:02;100297.66;;;9.55;100.00
5574;BME280;2563;52.242;7.956;2023-04-29T06:05:27;100282.25;;;9.55;100.00
5574;BME280;2563;52.242;7.956;2023-04-29T06:07:53;100246.34;;;9.52;100.00
5574;BME280;2563;52.242;7.956;2023-04-29T06:10:18;100221.53;;;9.51;100.00
5574;BME280;2563;52.242;7.956;2023-04-29T06:12:44;100179.50;;;9.54;100.00
5574;BME280;2563;52.242;7.956;2023-04-29T06:15:10;100129.84;;;9.53;100.00
5574;BME280;2563;52.242;7.956;2023-04-29T06:17:36;100066.34;;;9.58;100.00
5574;BME280;2563;52.242;7.956;2023-04-29T06:20:01;100006.34;;;9.59;100.00
5574;BME280;2563;52.242;7.956;2023-04-29T06:22:27;99969.31;;;9.67;100.00
5574;BME280;2563;52.242;7.956;2023-04-29T06:24:53;99989.03;;;9.66;100.00
5574;BME280;2563;52.242;7.956;2023-04-29T06:27:18;99962.28;;;9.72;100.00
5574;BME280;2563;52.242;7.956;2023-04-29T06:29:44;99933.81;;;9.79;100.00
5574;BME280;2563;52.242;7.956;2023-04-29T06:32:09;99961.06;;;9.85;100.00
5574;BME280;2563;52.242;7.956;2023-04-29T06:34:35;99968.06;;;9.80;100.00
5574;BME280;2563;52.242;7.956;2023-04-29T06:37:01;99984.69;;;9.96;100.00
5574;BME280;2563;52.242;7.956;2023-04-29T06:39:26;99974.91;;;10.08;100.00
5574;BME280;2563;52.242;7.956;2023-04-29T06:41:58;99972.19;;;10.12;100.00
5574;BME280;2563;52.242;7.956;2023-04-29T06:44:23;99981.38;;;10.19;100.00
5574;BME280;2563;52.242;7.956;2023-04-29T06:46:50;99980.44;;;10.22;100.00
5574;BME280;2563;52.242;7.956;2023-04-29T06:49:15;99970.00;;;10.28;100.00
5574;BME280;2563;52.242;7.956;2023-04-29T06:51:40;99968.25;;;10.30;100.00
5574;BME280;2563;52.242;7.956;2023-04-29T06:54:07;99978.53;;;10.30;100.00
5574;BME280;2563;52.242;7.956;2023-04-29T06:56:32;99993.16;;;10.28;100.00
5574;BME280;2563;52.242;7.956;2023-04-29T06:58:57;99999.91;;;10.32;100.00
5574;BME280;2563;52.242;7.956;2023-04-29T07:01:23;99998.59;;;10.46;100.00
5574;BME280;2563;52.242;7.956;2023-04-29T07:03:48;100002.72;;;10.51;100.00
5574;BME280;2563;52.242;7.956;2023-04-29T07:06:14;99996.63;;;10.54;100.00
5574;BME280;2563;52.242;7.956;2023-04-29T07:08:45;100002.84;;;10.73;100.00
5574;BME280;2563;52.242;7.956;2023-04-29T07:11:11;99988.44;;;10.93;100.00
5574;BME280;2563;52.242;7.956;2023-04-29T07:13:36;99988.13;;;11.02;100.00
5574;BME280;2563;52.242;7.956;2023-04-29T07:16:01;99983.50;;;10.86;100.00
5574;BME280;2563;52.242;7.956;2023-04-29T07:18:27;99992.09;;;10.87;100.00
5574;BME280;2563;52.242;7.956;2023-04-29T07:20:52;99981.75;;;11.12;100.00
5574;BME280;2563;52.242;7.956;2023-04-29T07:23:19;99981.94;;;11.31;100.00
5574;BME280;2563;52.242;7.956;2023-04-29T07:25:45;99963.72;;;11.36;100.00
5574;BME280;2563;52.242;7.956;2023-04-29T07:28:11;99971.00;;;11.48;100.00
5574;BME280;2563;52.242;7.956;2023-04-29T07:30:37;99958.44;;;11.62;100.00
5574;BME280;2563;52.242;7.956;2023-04-29T07:33:02;99947.16;;;11.65;100.00
5574;BME280;2563;52.242;7.956;2023-04-29T07:35:29;99934.22;;;11.66;100.00
5574;BME280;2563;52.242;7.956;2023-04-29T07:37:54;99935.78;;;11.70;100.00
5574;BME280;2563;52.242;7.956;2023-04-29T07:40:20;99886.66;;;11.29;100.00
5574;BME280;2563;52.242;7.956;2023-04-29T07:42:45;99877.31;;;11.27;100.00
5574;BME280;2563;52.242;7.956;2023-04-29T07:45:11;99862.59;;;11.31;100.00
5574;BME280;2563;52.242;7.956;2023-04-29T07:47:38;99836.34;;;11.21;100.00
5574;BME280;2563;52.242;7.956;2023-04-29T07:50:04;99842.75;;;11.33;100.00
5574;BME280;2563;52.242;7.956;2023-04-29T07:52:29;99820.81;;;11.22;100.00
5574;BME280;2563;52.242;7.956;2023-04-29T07:54:55;99808.97;;;11.18;100.00
5574;BME280;2563;52.242;7.956;2023-04-29T07:57:20;99790.44;;;11.31;100.00
5574;BME280;2563;52.242;7.956;2023-04-29T07:59:46;99773.25;;;11.31;100.00
5574;BME280;2563;52.242;7.956;2023-04-29T08:02:11;99733.78;;;11.31;100.00
5574;BME280;2563;52.242;7.956;2023-04-29T08:04:38;99726.03;;;11.31;100.00
5574;BME280;2563;52.242;7.956;2023-04-29T08:07:05;99728.53;;;11.32;100.00
5574;BME280;2563;52.242;7.956;2023-04-29T08:09:30;99726.69;;;11.56;100.00
5574;BME280;2563;52.242;7.956;2023-04-29T08:11:56;99700.44;;;11.68;100.00
5574;BME280;2563;52.242;7.956;2023-04-29T08:14:21;99688.13;;;11.55;100.00
5574;BME280;2563;52.242;7.956;2023-04-29T08:16:47;99668.47;;;11.52;100.00
5574;BME280;2563;52.242;7.956;2023-04-29T08:19:12;99661.91;;;11.45;100.00
5574;BME280;2563;52.242;7.956;2023-04-29T08:21:38;99673.97;;;11.63;100.00
5574;BME280;2563;52.242;7.956;2023-04-29T08:24:03;99654.56;;;11.75;100.00
5574;BME280;2563;52.242;7.956;2023-04-29T08:26:30;99624.91;;;11.66;100.00
5574;BME280;2563;52.242;7.956;2023-04-29T08:28:55;99647.41;;;12.02;100.00
5574;BME280;2563;52.242;7.956;2023-04-29T08:31:21;99644.06;;;12.38;100.00
5574;BME280;2563;52.242;7.956;2023-04-29T08:33:47;99591.44;;;12.04;100.00
5574;BME280;2563;52.242;7.956;2023-04-29T08:36:13;99597.22;;;12.09;100.00
5574;BME280;2563;52.242;7.956;2023-04-29T08:38:38;99599.31;;;12.01;100.00
5574;BME280;2563;52.242;7.956;2023-04-29T08:41:07;99617.00;;;12.28;100.00
5574;BME280;2563;52.242;7.956;2023-04-29T08:43:34;99617.63;;;12.33;100.00
5574;BME280;2563;52.242;7.956;2023-04-29T08:46:02;99620.41;;;12.47;100.00
5574;BME280;2563;52.242;7.956;2023-04-29T08:48:29;99630.22;;;12.58;100.00
5574;BME280;2563;52.242;7.956;2023-04-29T08:50:54;99640.09;;;12.86;100.00
5574;BME280;2563;52.242;7.956;2023-04-29T08:53:23;99624.50;;;12.88;100.00
5574;BME280;2563;52.242;7.956;2023-04-29T08:55:49;99627.63;;;12.77;100.00
5574;BME280;2563;52.242;7.956;2023-04-29T08:58:15;99653.84;;;13.04;100.00
5574;BME280;2563;52.242;7.956;2023-04-29T09:00:43;99653.38;;;12.96;100.00
5574;BME280;2563;52.242;7.956;2023-04-29T09:03:30;99684.63;;;13.26;100.00
5574;BME280;2563;52.242;7.956;2023-04-29T09:05:59;99674.41;;;13.42;100.00
5574;BME280;2563;52.242;7.956;2023-04-29T09:08:28;99689.06;;;13.42;100.00
5574;BME280;2563;52.242;7.956;2023-04-29T09:10:55;99704.59;;;13.42;100.00
5574;BME280;2563;52.242;7.956;2023-04-29T09:15:49;99786.16;;;13.65;100.00
5574;BME280;2563;52.242;7.956;2023-04-29T09:18:40;99797.50;;;14.14;100.00
5574;BME280;2563;52.242;7.956;2023-04-29T09:21:20;99840.63;;;14.31;100.00
5574;BME280;2563;52.242;7.956;2023-04-29T09:23:47;99862.78;;;14.19;100.00
5574;BME280;2563;52.242;7.956;2023-04-29T09:26:14;99910.16;;;14.21;100.00
5574;BME280;2563;52.242;7.956;2023-04-29T09:28:40;99966.63;;;14.13;100.00
5574;BME280;2563;52.242;7.956;2023-04-29T09:31:08;99993.06;;;14.20;100.00
5574;BME280;2563;52.242;7.956;2023-04-29T09:33:49;100020.78;;;14.18;100.00
5574;BME280;2563;52.242;7.956;2023-04-29T09:39:00;100142.25;;;14.78;100.00
5574;BME280;2563;52.242;7.956;2023-04-29T09:41:26;100146.50;;;14.96;100.00
5574;BME280;2563;52.242;7.956;2023-04-29T09:44:05;100157.38;;;14.68;100.00
5574;BME280;2563;52.242;7.956;2023-04-29T09:46:32;100265.78;;;15.14;100.00
5574;BME280;2563;52.242;7.956;2023-04-29T09:48:58;100293.13;;;15.02;100.00
5574;BME280;2563;52.242;7.956;2023-04-29T09:51:23;100351.97;;;14.81;100.00
5574;BME280;2563;52.242;7.956;2023-04-29T09:53:49;100408.38;;;14.74;100.00
5574;BME280;2563;52.242;7.956;2023-04-29T09:56:14;100460.78;;;14.81;100.00
5574;BME280;2563;52.242;7.956;2023-04-29T09:58:40;100500.13;;;15.30;100.00
5574;BME280;2563;52.242;7.956;2023-04-29T10:01:06;100497.81;;;15.03;100.00
5574;BME280;2563;52.242;7.956;2023-04-29T10:03:33;100527.63;;;14.93;100.00
5574;BME280;2563;52.242;7.956;2023-04-29T10:06:00;100515.47;;;14.54;100.00
5574;BME280;2563;52.242;7.956;2023-04-29T10:08:28;100565.31;;;14.59;100.00
5574;BME280;2563;52.242;7.956;2023-04-29T10:11:02;100628.91;;;14.88;100.00
5574;BME280;2563;52.242;7.956;2023-04-29T10:13:28;100641.19;;;15.46;100.00
5574;BME280;2563;52.242;7.956;2023-04-29T10:18:48;100672.41;;;15.02;100.00
5574;BME280;2563;52.242;7.956;2023-04-29T10:21:13;100655.84;;;15.06;100.00
5574;BME280;2563;52.242;7.956;2023-04-29T10:23:41;100667.09;;;15.05;100.00
5574;BME280;2563;52.242;7.956;2023-04-29T10:26:11;100697.13;;;15.74;100.00
5574;BME280;2563;52.242;7.956;2023-04-29T10:28:39;100681.38;;;15.36;100.00
5574;BME280;2563;52.242;7.956;2023-04-29T10:31:05;100680.47;;;15.17;100.00
5574;BME280;2563;52.242;7.956;2023-04-29T10:33:32;100762.66;;;15.15;100.00
5574;BME280;2563;52.242;7.956;2023-04-29T10:36:00;100713.69;;;15.29;100.00
5574;BME280;2563;52.242;7.956;2023-04-29T10:38:34;100749.34;;;15.24;100.00
5574;BME280;2563;52.242;7.956;2023-04-29T10:41:03;100802.50;;;15.78;100.00
5574;BME280;2563;52.242;7.956;2023-04-29T10:43:33;100800.09;;;16.14;100.00
5574;BME280;2563;52.242;7.956;2023-04-29T10:46:26;100767.06;;;16.56;100.00
5574;BME280;2563;52.242;7.956;2023-04-29T10:49:02;100773.22;;;16.72;100.00
5574;BME280;2563;52.242;7.956;2023-04-29T10:51:29;100781.78;;;16.36;100.00
5574;BME280;2563;52.242;7.956;2023-04-29T10:56:37;100781.19;;;15.70;100.00
5574;BME280;2563;52.242;7.956;2023-04-29T10:59:03;100792.88;;;15.16;100.00
5574;BME280;2563;52.242;7.956;2023-04-29T11:01:51;100888.25;;;15.75;100.00
5574;BME280;2563;52.242;7.956;2023-04-29T11:04:19;100795.78;;;15.72;100.00
5574;BME280;2563;52.242;7.956;2023-04-29T11:06:54;100876.09;;;15.98;100.00
5574;BME280;2563;52.242;7.956;2023-04-29T11:09:26;100915.78;;;16.22;100.00
5574;BME280;2563;52.242;7.956;2023-04-29T11:17:22;100829.53;;;17.84;100.00
5574;BME280;2563;52.242;7.956;2023-04-29T11:19:51;100813.28;;;17.06;100.00
5574;BME280;2563;52.242;7.956;2023-04-29T11:22:24;100768.59;;;16.02;100.00
5574;BME280;2563;52.242;7.956;2023-04-29T11:24:54;100834.91;;;15.24;100.00
5574;BME280;2563;52.242;7.956;2023-04-29T11:27:22;100882.63;;;15.64;100.00
5574;BME280;2563;52.242;7.956;2023-04-29T11:29:51;100878.69;;;15.98;100.00
5574;BME280;2563;52.242;7.956;2023-04-29T11:32:20;100865.03;;;15.72;100.00
5574;BME280;2563;52.242;7.956;2023-04-29T11:34:46;100840.81;;;15.49;100.00
5574;BME280;2563;52.242;7.956;2023-04-29T11:37:11;100868.28;;;15.55;100.00
5574;BME280;2563;52.242;7.956;2023-04-29T11:39:37;100870.38;;;15.45;100.00
5574;BME280;2563;52.242;7.956;2023-04-29T11:42:05;100846.06;;;15.48;100.00
5574;BME280;2563;52.242;7.956;2023-04-29T11:44:35;100866.56;;;15.32;100.00
5574;BME280;2563;52.242;7.956;2023-04-29T11:47:04;100880.44;;;15.31;100.00
5574;BME280;2563;52.242;7.956;2023-04-29T11:49:31;101052.97;;;17.17;100.00
5574;BME280;2563;52.242;7.956;2023-04-29T11:51:57;100878.94;;;17.67;100.00
5574;BME280;2563;52.242;7.956;2023-04-29T11:54:28;100864.94;;;16.95;100.00
5574;BME280;2563;52.242;7.956;2023-04-29T11:56:54;100859.66;;;16.38;100.00
5574;BME280;2563;52.242;7.956;2023-04-29T11:59:22;100839.16;;;15.91;100.00
5574;BME280;2563;52.242;7.956;2023-04-29T12:01:49;100879.38;;;15.81;100.00
5574;BME280;2563;52.242;7.956;2023-04-29T12:04:15;100859.47;;;15.37;100.00
5574;BME280;2563;52.242;7.956;2023-04-29T12:06:40;100873.19;;;15.17;100.00
5574;BME280;2563;52.242;7.956;2023-04-29T12:09:06;101005.44;;;15.64;100.00
5574;BME280;2563;52.242;7.956;2023-04-29T12:11:32;100967.97;;;16.15;100.00
5574;BME280;2563;52.242;7.956;2023-04-29T12:13:58;100869.38;;;15.49;100.00
5574;BME280;2563;52.242;7.956;2023-04-29T12:16:26;100910.16;;;15.22;100.00
5574;BME280;2563;52.242;7.956;2023-04-29T12:18:54;100944.00;;;15.43;100.00
5574;BME280;2563;52.242;7.956;2023-04-29T12:21:23;100952.25;;;15.52;100.00
5574;BME280;2563;52.242;7.956;2023-04-29T12:23:50;100966.56;;;15.63;100.00
5574;BME280;2563;52.242;7.956;2023-04-29T12:26:15;100967.56;;;15.82;100.00
5574;BME280;2563;52.242;7.956;2023-04-29T12:28:43;100964.09;;;15.83;100.00
5574;BME280;2563;52.242;7.956;2023-04-29T12:31:09;100919.19;;;15.58;100.00
5574;BME280;2563;52.242;7.956;2023-04-29T12:33:37;100950.91;;;15.66;100.00
5574;BME280;2563;52.242;7.956;2023-04-29T12:36:15;100890.88;;;15.29;100.00
5574;BME280;2563;52.242;7.956;2023-04-29T12:38:42;100882.34;;;15.04;100.00
5574;BME280;2563;52.242;7.956;2023-04-29T12:41:08;100890.63;;;14.90;100.00
5574;BME280;2563;52.242;7.956;2023-04-29T12:43:33;100973.31;;;15.21;100.00
5574;BME280;2563;52.242;7.956;2023-04-29T12:46:03;100946.44;;;15.24;100.00
5574;BME280;2563;52.242;7.956;2023-04-29T12:48:33;100885.44;;;14.90;100.00
5574;BME280;2563;52.242;7.956;2023-04-29T12:50:59;100941.13;;;15.03;100.00
5574;BME280;2563;52.242;7.956;2023-04-29T12:53:25;100942.25;;;14.96;100.00
5574;BME280;2563;52.242;7.956;2023-04-29T12:55:51;100965.03;;;15.12;100.00
5574;BME280;2563;52.242;7.956;2023-04-29T12:58:17;100947.25;;;15.01;100.00
5574;BME280;2563;52.242;7.956;2023-04-29T13:00:43;101002.56;;;15.25;100.00
5574;BME280;2563;52.242;7.956;2023-04-29T13:03:08;101040.47;;;15.52;100.00
5574;BME280;2563;52.242;7.956;2023-04-29T13:05:34;101008.69;;;15.47;100.00
5574;BME280;2563;52.242;7.956;2023-04-29T13:07:59;100998.16;;;15.50;100.00
5574;BME280;2563;52.242;7.956;2023-04-29T13:10:25;100990.38;;;15.50;100.00
5574;BME280;2563;52.242;7.956;2023-04-29T13:12:52;101036.38;;;15.70;100.00
5574;BME280;2563;52.242;7.956;2023-04-29T13:15:18;101021.59;;;15.72;100.00
5574;BME280;2563;52.242;7.956;2023-04-29T13:17:43;101007.06;;;15.67;100.00
5574;BME280;2563;52.242;7.956;2023-04-29T13:20:10;100955.66;;;15.55;100.00
5574;BME280;2563;52.242;7.956;2023-04-29T13:22:35;101044.44;;;15.86;100.00
5574;BME280;2563;52.242;7.956;2023-04-29T13:25:01;101018.25;;;15.92;100.00
5574;BME280;2563;52.242;7.956;2023-04-29T13:27:27;101030.09;;;16.00;100.00
5574;BME280;2563;52.242;7.956;2023-04-29T13:29:52;101023.84;;;16.04;100.00
5574;BME280;2563;52.242;7.956;2023-04-29T13:32:17;100988.63;;;15.97;100.00
5574;BME280;2563;52.242;7.956;2023-04-29T13:34:47;100973.34;;;15.67;100.00